createdAt,value
2022-10-12T00:00:50.877Z,93.35
2022-10-12T00:03:59.857Z,93.10
2022-10-12T00:07:47.963Z,92.73
2022-10-12T00:11:26.864Z,92.69
2022-10-12T00:15:22.219Z,92.65
2022-10-12T00:18:59.122Z,92.57
2022-10-12T00:22:53.985Z,92.47
2022-10-12T00:25:56.369Z,92.46
2022-10-12T00:29:11.059Z,93.10
2022-10-12T00:32:22.860Z,93.98
2022-10-12T00:36:31.107Z,94.91
2022-10-12T00:40:19.120Z,95.79
2022-10-12T00:43:48.382Z,96.09
2022-10-12T00:47:41.395Z,96.53
2022-10-12T00:51:17.875Z,97.01
2022-10-12T00:54:31.282Z,96.85
2022-10-12T00:58:01.863Z,96.01
2022-10-12T01:01:41.310Z,95.37
2022-10-12T01:04:53.056Z,94.73
2022-10-12T01:08:30.940Z,94.80
2022-10-12T01:12:16.345Z,95.04
2022-10-12T01:15:35.959Z,95.88
2022-10-12T01:18:55.899Z,97.29
2022-10-12T01:22:31.076Z,98.14
2022-10-12T01:26:34.858Z,97.75
2022-10-12T01:30:22.151Z,97.29
2022-10-12T01:34:28.935Z,97.30
2022-10-12T01:37:48.816Z,97.43
2022-10-12T01:41:27.898Z,97.50
2022-10-12T01:44:39.242Z,97.57
2022-10-12T01:48:41.223Z,97.90
2022-10-12T01:52:37.936Z,97.36
2022-10-12T01:56:31.694Z,97.69
2022-10-12T02:00:10.896Z,97.66
2022-10-12T02:03:30.707Z,98.24
2022-10-12T02:06:52.866Z,98.04
2022-10-12T02:10:05.175Z,99.08
2022-10-12T02:13:20.934Z,99.32
2022-10-12T02:16:28.444Z,99.03
2022-10-12T02:19:50.183Z,99.20
2022-10-12T02:22:53.232Z,99.63
2022-10-12T02:26:42.354Z,99.65
2022-10-12T02:30:47.990Z,100.00
2022-10-12T02:34:43.878Z,100.00
2022-10-12T02:38:09.984Z,100.00
2022-10-12T02:42:14.261Z,100.00
2022-10-12T02:45:58.515Z,100.00
2022-10-12T02:49:18.895Z,100.00
2022-10-12T02:53:13.959Z,100.00
2022-10-12T02:57:09.909Z,100.00
2022-10-12T03:00:22.452Z,100.00
2022-10-12T03:04:16.884Z,100.00
2022-10-12T03:08:05.155Z,100.00
2022-10-12T03:11:39.899Z,100.00
2022-10-12T03:15:28.212Z,100.00
2022-10-12T03:19:03.132Z,100.00
2022-10-12T03:22:25.026Z,100.00
2022-10-12T03:25:39.868Z,100.00
2022-10-12T03:28:48.548Z,100.00
2022-10-12T03:31:56.874Z,100.00
2022-10-12T03:35:12.877Z,100.00
2022-10-12T03:38:16.094Z,100.00
2022-10-12T03:41:30.923Z,100.00
2022-10-12T03:44:32.783Z,100.00
2022-10-12T03:47:48.059Z,100.00
2022-10-12T03:50:59.244Z,100.00
2022-10-12T03:54:54.104Z,100.00
2022-10-12T03:58:28.896Z,100.00
2022-10-12T04:02:03.899Z,100.00
2022-10-12T04:05:35.884Z,100.00
2022-10-12T04:09:11.232Z,100.00
2022-10-12T04:12:33.510Z,100.00
2022-10-12T04:15:47.969Z,100.00
2022-10-12T04:19:02.912Z,100.00
2022-10-12T04:22:05.243Z,100.00
2022-10-12T04:28:57.714Z,100.00
2022-10-12T04:33:04.975Z,100.00
2022-10-12T04:36:58.937Z,100.00
2022-10-12T04:40:07.081Z,100.00
2022-10-12T04:43:22.905Z,100.00
2022-10-12T04:46:31.128Z,100.00
2022-10-12T04:50:29.888Z,100.00
2022-10-12T04:53:39.003Z,100.00
2022-10-12T04:56:48.164Z,100.00
2022-10-12T05:00:16.699Z,100.00
2022-10-12T05:28:17.729Z,100.00
2022-10-12T05:35:41.868Z,100.00
2022-10-12T05:39:13.070Z,100.00
2022-10-12T05:46:29.014Z,99.30
2022-10-12T05:49:31.485Z,98.38
2022-10-12T05:57:41.867Z,93.20
2022-10-12T06:01:38.987Z,92.30
2022-10-12T06:04:50.139Z,89.19
2022-10-12T06:08:02.044Z,86.67
2022-10-12T06:11:34.073Z,83.73
2022-10-12T06:14:44.689Z,81.97
2022-10-12T06:17:53.699Z,79.30
2022-10-12T06:21:39.335Z,78.57
2022-10-12T06:25:09.912Z,77.65
2022-10-12T06:28:26.700Z,77.10
2022-10-12T06:31:41.618Z,77.92
2022-10-12T06:34:49.609Z,77.13
2022-10-12T06:37:58.219Z,78.00
2022-10-12T06:41:12.687Z,78.91
2022-10-12T06:44:14.334Z,78.29
2022-10-12T06:47:28.667Z,78.67
2022-10-12T06:50:43.591Z,78.20
2022-10-12T06:53:55.324Z,77.61
2022-10-12T06:57:11.675Z,77.55
2022-10-12T07:00:16.910Z,76.59
2022-10-12T07:07:44.766Z,75.09
2022-10-12T07:11:06.638Z,74.50
2022-10-12T07:21:59.818Z,74.19
2022-10-12T07:28:54.823Z,73.51
2022-10-12T07:36:13.400Z,73.02
2022-10-12T07:55:05.611Z,70.94
2022-10-12T07:58:43.662Z,70.12
2022-10-12T08:02:09.174Z,70.68
2022-10-12T08:29:58.496Z,68.12
2022-10-12T08:33:18.902Z,69.12
2022-10-12T08:47:47.208Z,65.93
2022-10-12T08:51:28.917Z,66.20
2022-10-12T08:55:38.832Z,66.91
2022-10-12T08:59:38.949Z,64.82
2022-10-12T09:11:47.224Z,63.62
2022-10-12T09:15:44.884Z,62.31
2022-10-12T09:36:07.971Z,62.48
2022-10-12T09:43:19.070Z,62.99
2022-10-12T10:08:30.759Z,62.39
2022-10-12T10:11:50.771Z,63.25
2022-10-12T10:52:45.632Z,58.71
2022-10-12T10:56:41.793Z,58.60
2022-10-12T11:21:59.877Z,58.72
2022-10-12T11:26:00.394Z,58.67
2022-10-12T11:37:19.051Z,57.50
2022-10-12T11:53:49.759Z,57.70
2022-10-12T11:57:13.104Z,57.65
2022-10-12T12:05:44.576Z,58.64
2022-10-12T12:13:27.876Z,58.12
2022-10-12T12:21:06.078Z,57.53
2022-10-12T12:28:43.402Z,56.74
2022-10-12T12:32:06.768Z,56.76
2022-10-12T12:35:25.784Z,56.42
2022-10-12T12:42:38.778Z,56.40
2022-10-12T13:27:23.680Z,56.41
2022-10-12T13:35:05.259Z,56.99
2022-10-12T13:49:49.779Z,56.90
2022-10-12T13:53:07.714Z,57.12
2022-10-12T13:57:00.988Z,57.47
2022-10-12T14:00:30.788Z,58.48
2022-10-12T14:03:39.839Z,58.87
2022-10-12T14:22:55.909Z,59.74
2022-10-12T14:35:30.109Z,58.77
2022-10-12T15:28:15.083Z,66.98
2022-10-12T15:39:09.185Z,68.45
2022-10-12T15:42:26.408Z,68.89
2022-10-12T15:45:40.951Z,69.03
2022-10-12T15:48:57.760Z,70.10
2022-10-12T15:52:51.154Z,70.66
2022-10-12T15:56:06.036Z,68.85
2022-10-12T15:59:21.962Z,70.18
2022-10-12T16:02:31.093Z,70.73
2022-10-12T16:05:41.969Z,70.72
2022-10-12T16:08:56.328Z,70.70
2022-10-12T16:12:10.864Z,71.18
2022-10-12T16:15:47.830Z,70.71
2022-10-12T16:19:13.951Z,71.17
2022-10-12T16:22:20.666Z,70.88
2022-10-12T16:25:38.955Z,71.43
2022-10-12T16:28:50.359Z,71.78
2022-10-12T16:32:20.644Z,72.88
2022-10-12T16:35:25.383Z,73.76
2022-10-12T16:38:52.067Z,74.19
2022-10-12T16:42:05.863Z,74.80
2022-10-12T16:45:26.787Z,75.29
2022-10-12T17:00:17.844Z,77.18
2022-10-12T17:03:36.080Z,77.33
2022-10-12T17:06:37.942Z,77.32
2022-10-12T17:09:52.817Z,77.64
2022-10-12T17:12:54.748Z,77.40
2022-10-12T17:27:06.240Z,80.27
2022-10-12T17:30:21.907Z,82.09
2022-10-12T17:33:37.831Z,82.15
2022-10-12T17:36:46.906Z,82.29
2022-10-12T17:40:01.859Z,82.68
2022-10-12T17:43:23.423Z,82.57
2022-10-12T17:46:37.836Z,83.33
2022-10-12T17:49:39.422Z,84.38
2022-10-12T17:52:53.847Z,84.85
2022-10-12T17:56:18.856Z,83.66
2022-10-12T17:59:34.348Z,84.10
2022-10-12T18:02:44.353Z,84.80
2022-10-12T18:06:15.999Z,85.57
2022-10-12T18:09:47.033Z,86.14
2022-10-12T18:13:01.864Z,86.86
2022-10-12T18:16:28.380Z,87.65
2022-10-12T18:19:43.937Z,87.27
2022-10-12T18:22:48.813Z,86.72
2022-10-12T18:26:11.962Z,87.48
2022-10-12T18:29:21.115Z,87.01
2022-10-12T18:32:49.503Z,87.50
2022-10-12T18:36:14.954Z,88.21
2022-10-12T18:43:09.050Z,89.33
2022-10-12T18:46:14.103Z,90.05
2022-10-12T18:49:31.968Z,90.66
2022-10-12T18:56:10.905Z,91.06
2022-10-12T18:59:18.983Z,91.21
2022-10-12T19:02:33.932Z,91.94
2022-10-12T19:06:04.649Z,91.78
2022-10-12T19:09:39.928Z,92.06
2022-10-12T19:13:28.260Z,91.94
2022-10-12T19:16:56.953Z,92.34
2022-10-12T19:20:13.210Z,92.38
2022-10-12T19:23:21.168Z,91.82
2022-10-12T19:26:30.552Z,92.40
2022-10-12T19:29:43.527Z,93.01
2022-10-12T19:33:00.087Z,93.86
2022-10-12T19:36:16.908Z,94.18
2022-10-12T19:39:28.899Z,94.60
2022-10-12T19:42:37.442Z,94.83
2022-10-12T19:45:47.162Z,94.94
2022-10-12T19:49:06.052Z,95.65
2022-10-12T19:52:28.126Z,96.07
2022-10-12T19:55:43.020Z,96.13
2022-10-12T19:58:58.731Z,96.48
2022-10-12T20:02:16.471Z,96.59
2022-10-12T20:05:24.941Z,96.86
2022-10-12T20:08:39.912Z,97.21
2022-10-12T20:11:47.867Z,97.62
2022-10-12T20:19:11.896Z,98.87
2022-10-12T20:22:27.991Z,99.32
2022-10-12T20:25:53.418Z,99.62
2022-10-12T20:28:57.455Z,99.77
2022-10-12T20:32:15.034Z,100.00
2022-10-12T20:35:16.739Z,100.00
2022-10-12T20:38:33.948Z,100.00
2022-10-12T20:41:36.279Z,100.00
2022-10-12T20:45:06.199Z,100.00
2022-10-12T20:48:22.495Z,100.00
2022-10-12T20:51:39.914Z,100.00
2022-10-12T20:54:47.920Z,100.00
2022-10-12T20:58:09.922Z,100.00
2022-10-12T21:01:25.895Z,100.00
2022-10-12T21:04:38.294Z,100.00
2022-10-12T21:07:47.001Z,100.00
2022-10-12T21:10:55.463Z,100.00
2022-10-12T21:14:03.908Z,100.00
2022-10-12T21:17:12.500Z,100.00
2022-10-12T21:20:26.903Z,100.00
2022-10-12T21:23:28.479Z,100.00
2022-10-12T21:26:42.944Z,100.00
2022-10-12T21:29:58.222Z,100.00
2022-10-12T21:33:00.028Z,100.00
2022-10-12T21:36:24.035Z,100.00
2022-10-12T21:39:32.156Z,100.00
2022-10-12T21:42:40.442Z,100.00
2022-10-12T21:45:54.929Z,100.00
2022-10-12T21:48:57.468Z,100.00
2022-10-12T21:52:11.939Z,100.00
2022-10-12T21:55:13.540Z,100.00
2022-10-12T21:58:28.023Z,100.00
2022-10-12T22:01:49.937Z,100.00
2022-10-12T22:05:04.923Z,100.00
2022-10-12T22:08:13.924Z,100.00
2022-10-12T22:11:23.467Z,100.00
2022-10-12T22:14:31.903Z,100.00
2022-10-12T22:17:40.347Z,100.00
2022-10-12T22:20:47.915Z,100.00
2022-10-12T22:23:56.351Z,100.00
2022-10-12T22:27:04.995Z,100.00
2022-10-12T22:30:13.498Z,100.00
2022-10-12T22:33:21.916Z,100.00
2022-10-12T22:36:31.307Z,100.00
2022-10-12T22:39:39.940Z,100.00
2022-10-12T22:42:48.495Z,100.00
2022-10-12T22:45:56.998Z,100.00
2022-10-12T22:49:12.960Z,100.00
2022-10-12T22:52:27.952Z,100.00
2022-10-12T22:55:29.559Z,100.00
2022-10-12T22:58:43.942Z,100.00
2022-10-12T23:01:52.252Z,100.00
2022-10-12T23:05:07.240Z,100.00
2022-10-12T23:08:09.007Z,100.00
2022-10-12T23:11:27.943Z,100.00
2022-10-12T23:14:35.934Z,100.00
2022-10-12T23:17:50.955Z,100.00
2022-10-12T23:20:53.009Z,100.00
2022-10-12T23:24:09.085Z,100.00
2022-10-12T23:27:16.935Z,100.00
2022-10-12T23:30:25.522Z,100.00
2022-10-12T23:33:33.953Z,100.00
2022-10-12T23:36:48.955Z,100.00
2022-10-12T23:39:50.772Z,100.00
2022-10-12T23:43:04.939Z,100.00
2022-10-12T23:46:07.268Z,100.00
2022-10-12T23:49:21.983Z,100.00
2022-10-12T23:52:23.551Z,100.00
2022-10-12T23:55:39.992Z,100.00
2022-10-12T23:58:55.963Z,100.00
